sensor_id;sensor_type;location;lat;lon;timestamp;temperature;humidity
35381;DHT22;21486;51.916;8.378;2023-06-19T00:00:37;23.80;52.40
35381;DHT22;21486;51.916;8.378;2023-06-19T00:03:04;23.80;52.50
35381;DHT22;21486;51.916;8.378;2023-06-19T00:05:30;23.70;52.70
35381;DHT22;21486;51.916;8.378;2023-06-19T00:07:56;23.70;52.80
35381;DHT22;21486;51.916;8.378;2023-06-19T00:10:21;23.70;52.80
35381;DHT22;21486;51.916;8.378;2023-06-19T00:12:46;23.70;52.90
35381;DHT22;21486;51.916;8.378;2023-06-19T00:15:12;23.70;53.10
35381;DHT22;21486;51.916;8.378;2023-06-19T00:17:37;23.60;53.10
35381;DHT22;21486;51.916;8.378;2023-06-19T00:20:03;23.60;53.20
35381;DHT22;21486;51.916;8.378;2023-06-19T00:22:30;23.60;53.20
35381;DHT22;21486;51.916;8.378;2023-06-19T00:24:56;23.60;53.30
35381;DHT22;21486;51.916;8.378;2023-06-19T00:27:21;23.60;53.50
35381;DHT22;21486;51.916;8.378;2023-06-19T00:29:47;23.60;53.50
35381;DHT22;21486;51.916;8.378;2023-06-19T00:33:02;23.60;53.10
35381;DHT22;21486;51.916;8.378;2023-06-19T00:35:28;23.60;53.80
35381;DHT22;21486;51.916;8.378;2023-06-19T00:37:53;23.60;53.90
35381;DHT22;21486;51.916;8.378;2023-06-19T00:40:32;23.60;53.80
35381;DHT22;21486;51.916;8.378;2023-06-19T00:42:58;23.60;53.80
35381;DHT22;21486;51.916;8.378;2023-06-19T00:45:24;23.70;53.80
35381;DHT22;21486;51.916;8.378;2023-06-19T00:47:51;23.70;53.80
35381;DHT22;21486;51.916;8.378;2023-06-19T00:50:17;23.70;53.50
35381;DHT22;21486;51.916;8.378;2023-06-19T00:52:43;23.70;53.50
35381;DHT22;21486;51.916;8.378;2023-06-19T00:55:09;23.70;53.60
35381;DHT22;21486;51.916;8.378;2023-06-19T00:57:35;23.70;53.50
35381;DHT22;21486;51.916;8.378;2023-06-19T01:00:02;23.70;53.80
35381;DHT22;21486;51.916;8.378;2023-06-19T01:02:32;23.70;53.50
35381;DHT22;21486;51.916;8.378;2023-06-19T01:04:57;23.70;53.80
35381;DHT22;21486;51.916;8.378;2023-06-19T01:07:31;23.80;53.70
35381;DHT22;21486;51.916;8.378;2023-06-19T01:10:05;23.60;54.10
35381;DHT22;21486;51.916;8.378;2023-06-19T01:12:38;23.50;54.00
35381;DHT22;21486;51.916;8.378;2023-06-19T01:15:07;23.40;54.50
35381;DHT22;21486;51.916;8.378;2023-06-19T01:17:33;23.30;54.60
35381;DHT22;21486;51.916;8.378;2023-06-19T01:20:01;23.30;54.70
35381;DHT22;21486;51.916;8.378;2023-06-19T01:22:31;23.40;54.70
35381;DHT22;21486;51.916;8.378;2023-06-19T01:24:57;23.30;54.90
35381;DHT22;21486;51.916;8.378;2023-06-19T01:27:24;23.30;55.10
35381;DHT22;21486;51.916;8.378;2023-06-19T01:29:51;23.30;55.20
35381;DHT22;21486;51.916;8.378;2023-06-19T01:32:34;23.30;55.20
35381;DHT22;21486;51.916;8.378;2023-06-19T01:35:02;23.20;55.70
35381;DHT22;21486;51.916;8.378;2023-06-19T01:37:29;23.20;55.80
35381;DHT22;21486;51.916;8.378;2023-06-19T01:39:59;23.20;56.10
35381;DHT22;21486;51.916;8.378;2023-06-19T01:42:26;23.10;56.10
35381;DHT22;21486;51.916;8.378;2023-06-19T01:44:52;23.20;56.50
35381;DHT22;21486;51.916;8.378;2023-06-19T01:47:18;23.10;56.60
35381;DHT22;21486;51.916;8.378;2023-06-19T01:49:48;23.10;56.80
35381;DHT22;21486;51.916;8.378;2023-06-19T01:52:14;23.10;56.90
35381;DHT22;21486;51.916;8.378;2023-06-19T01:54:40;23.00;57.10
35381;DHT22;21486;51.916;8.378;2023-06-19T01:57:06;23.00;57.30
35381;DHT22;21486;51.916;8.378;2023-06-19T01:59:31;22.90;57.50
35381;DHT22;21486;51.916;8.378;2023-06-19T02:01:57;22.90;57.70
35381;DHT22;21486;51.916;8.378;2023-06-19T02:04:23;22.90;57.90
35381;DHT22;21486;51.916;8.378;2023-06-19T02:06:48;22.90;58.00
35381;DHT22;21486;51.916;8.378;2023-06-19T02:09:14;22.80;58.00
35381;DHT22;21486;51.916;8.378;2023-06-19T02:11:39;22.90;58.20
35381;DHT22;21486;51.916;8.378;2023-06-19T02:14:05;22.80;58.20
35381;DHT22;21486;51.916;8.378;2023-06-19T02:16:30;22.90;58.30
35381;DHT22;21486;51.916;8.378;2023-06-19T02:18:56;22.80;58.40
35381;DHT22;21486;51.916;8.378;2023-06-19T02:21:22;22.80;58.70
35381;DHT22;21486;51.916;8.378;2023-06-19T02:23:47;22.80;58.60
35381;DHT22;21486;51.916;8.378;2023-06-19T02:26:13;22.80;58.70
35381;DHT22;21486;51.916;8.378;2023-06-19T02:28:39;22.80;58.90
35381;DHT22;21486;51.916;8.378;2023-06-19T02:31:04;22.80;59.00
35381;DHT22;21486;51.916;8.378;2023-06-19T02:33:30;22.70;59.00
35381;DHT22;21486;51.916;8.378;2023-06-19T02:35:55;22.70;59.20
35381;DHT22;21486;51.916;8.378;2023-06-19T02:38:24;22.70;59.50
35381;DHT22;21486;51.916;8.378;2023-06-19T02:40:50;22.70;59.80
35381;DHT22;21486;51.916;8.378;2023-06-19T02:43:16;22.70;59.80
35381;DHT22;21486;51.916;8.378;2023-06-19T02:45:41;22.60;59.90
35381;DHT22;21486;51.916;8.378;2023-06-19T02:48:07;22.70;60.00
35381;DHT22;21486;51.916;8.378;2023-06-19T02:50:33;22.60;60.10
35381;DHT22;21486;51.916;8.378;2023-06-19T02:52:58;22.70;60.20
35381;DHT22;21486;51.916;8.378;2023-06-19T02:55:24;22.60;60.30
35381;DHT22;21486;51.916;8.378;2023-06-19T02:57:49;22.60;60.40
35381;DHT22;21486;51.916;8.378;2023-06-19T03:00:15;22.60;60.70
35381;DHT22;21486;51.916;8.378;2023-06-19T03:02:40;22.50;60.80
35381;DHT22;21486;51.916;8.378;2023-06-19T03:05:09;22.50;61.00
35381;DHT22;21486;51.916;8.378;2023-06-19T03:07:35;22.50;61.20
35381;DHT22;21486;51.916;8.378;2023-06-19T03:10:00;22.50;61.40
35381;DHT22;21486;51.916;8.378;2023-06-19T03:12:26;22.40;61.60
35381;DHT22;21486;51.916;8.378;2023-06-19T03:14:51;22.40;61.80
35381;DHT22;21486;51.916;8.378;2023-06-19T03:17:17;22.30;61.90
35381;DHT22;21486;51.916;8.378;2023-06-19T03:19:42;22.40;62.20
35381;DHT22;21486;51.916;8.378;2023-06-19T03:22:08;22.40;62.30
35381;DHT22;21486;51.916;8.378;2023-06-19T03:24:33;22.40;62.10
35381;DHT22;21486;51.916;8.378;2023-06-19T03:26:59;22.30;62.30
35381;DHT22;21486;51.916;8.378;2023-06-19T03:29:24;22.40;62.40
35381;DHT22;21486;51.916;8.378;2023-06-19T03:31:50;22.30;62.30
35381;DHT22;21486;51.916;8.378;2023-06-19T03:34:16;22.30;62.70
35381;DHT22;21486;51.916;8.378;2023-06-19T03:36:41;22.30;62.70
35381;DHT22;21486;51.916;8.378;2023-06-19T03:39:07;22.30;62.90
35381;DHT22;21486;51.916;8.378;2023-06-19T03:41:32;22.30;63.00
35381;DHT22;21486;51.916;8.378;2023-06-19T03:43:58;22.30;63.10
35381;DHT22;21486;51.916;8.378;2023-06-19T03:46:23;22.30;63.10
35381;DHT22;21486;51.916;8.378;2023-06-19T03:48:49;22.20;63.00
35381;DHT22;21486;51.916;8.378;2023-06-19T03:51:14;22.20;63.30
35381;DHT22;21486;51.916;8.378;2023-06-19T03:53:40;22.30;63.10
35381;DHT22;21486;51.916;8.378;2023-06-19T03:56:07;22.30;63.40
35381;DHT22;21486;51.916;8.378;2023-06-19T03:58:32;22.20;63.30
35381;DHT22;21486;51.916;8.378;2023-06-19T04:00:58;22.30;63.20
35381;DHT22;21486;51.916;8.378;2023-06-19T04:03:23;22.20;63.30
35381;DHT22;21486;51.916;8.378;2023-06-19T04:05:49;22.30;63.20
35381;DHT22;21486;51.916;8.378;2023-06-19T04:08:15;22.20;63.30
35381;DHT22;21486;51.916;8.378;2023-06-19T04:10:41;22.30;63.50
35381;DHT22;21486;51.916;8.378;2023-06-19T04:13:06;22.30;63.40
35381;DHT22;21486;51.916;8.378;2023-06-19T04:15:32;22.20;63.50
35381;DHT22;21486;51.916;8.378;2023-06-19T04:17:58;22.30;63.80
35381;DHT22;21486;51.916;8.378;2023-06-19T04:20:26;22.30;63.80
35381;DHT22;21486;51.916;8.378;2023-06-19T04:22:51;22.30;63.90
35381;DHT22;21486;51.916;8.378;2023-06-19T04:25:17;22.30;63.80
35381;DHT22;21486;51.916;8.378;2023-06-19T04:27:43;22.30;63.70
35381;DHT22;21486;51.916;8.378;2023-06-19T04:30:10;22.50;63.70
35381;DHT22;21486;51.916;8.378;2023-06-19T04:32:36;22.50;64.10
35381;DHT22;21486;51.916;8.378;2023-06-19T04:35:06;22.50;63.80
35381;DHT22;21486;51.916;8.378;2023-06-19T04:37:32;22.50;63.50
35381;DHT22;21486;51.916;8.378;2023-06-19T04:39:57;22.60;63.80
35381;DHT22;21486;51.916;8.378;2023-06-19T04:42:24;22.70;63.80
35381;DHT22;21486;51.916;8.378;2023-06-19T04:44:50;22.70;64.00
35381;DHT22;21486;51.916;8.378;2023-06-19T04:47:17;22.80;63.40
35381;DHT22;21486;51.916;8.378;2023-06-19T04:49:42;22.80;63.20
35381;DHT22;21486;51.916;8.378;2023-06-19T04:52:08;22.90;63.40
35381;DHT22;21486;51.916;8.378;2023-06-19T04:54:33;23.00;63.50
35381;DHT22;21486;51.916;8.378;2023-06-19T04:56:59;22.80;63.40
35381;DHT22;21486;51.916;8.378;2023-06-19T04:59:25;23.00;63.40
35381;DHT22;21486;51.916;8.378;2023-06-19T05:01:50;23.00;63.40
35381;DHT22;21486;51.916;8.378;2023-06-19T05:04:21;23.10;63.70
35381;DHT22;21486;51.916;8.378;2023-06-19T05:06:48;23.10;63.50
35381;DHT22;21486;51.916;8.378;2023-06-19T05:09:13;23.50;62.90
35381;DHT22;21486;51.916;8.378;2023-06-19T05:11:39;24.10;60.70
35381;DHT22;21486;51.916;8.378;2023-06-19T05:14:04;24.80;59.60
35381;DHT22;21486;51.916;8.378;2023-06-19T05:16:30;25.50;58.00
35381;DHT22;21486;51.916;8.378;2023-06-19T05:18:55;26.00;56.60
35381;DHT22;21486;51.916;8.378;2023-06-19T05:21:21;26.30;55.80
35381;DHT22;21486;51.916;8.378;2023-06-19T05:23:47;26.60;55.70
35381;DHT22;21486;51.916;8.378;2023-06-19T05:26:18;26.70;55.20
35381;DHT22;21486;51.916;8.378;2023-06-19T05:28:44;27.10;55.10
35381;DHT22;21486;51.916;8.378;2023-06-19T05:31:09;26.90;54.90
35381;DHT22;21486;51.916;8.378;2023-06-19T05:33:35;27.00;55.50
35381;DHT22;21486;51.916;8.378;2023-06-19T05:36:00;26.90;55.10
35381;DHT22;21486;51.916;8.378;2023-06-19T05:38:26;27.20;54.90
35381;DHT22;21486;51.916;8.378;2023-06-19T05:40:55;27.70;54.70
35381;DHT22;21486;51.916;8.378;2023-06-19T05:43:21;28.20;53.60
35381;DHT22;21486;51.916;8.378;2023-06-19T05:45:47;28.10;53.20
35381;DHT22;21486;51.916;8.378;2023-06-19T05:48:13;28.60;53.20
35381;DHT22;21486;51.916;8.378;2023-06-19T05:50:38;28.60;52.30
35381;DHT22;21486;51.916;8.378;2023-06-19T05:53:05;29.00;52.50
35381;DHT22;21486;51.916;8.378;2023-06-19T05:55:30;29.20;51.90
35381;DHT22;21486;51.916;8.378;2023-06-19T05:57:56;29.10;52.30
35381;DHT22;21486;51.916;8.378;2023-06-19T06:00:22;28.80;52.40
35381;DHT22;21486;51.916;8.378;2023-06-19T06:02:48;28.40;52.90
35381;DHT22;21486;51.916;8.378;2023-06-19T06:05:13;28.30;54.00
35381;DHT22;21486;51.916;8.378;2023-06-19T06:07:39;28.50;53.90
35381;DHT22;21486;51.916;8.378;2023-06-19T06:10:05;28.70;53.70
35381;DHT22;21486;51.916;8.378;2023-06-19T06:12:34;28.90;53.60
35381;DHT22;21486;51.916;8.378;2023-06-19T06:15:04;28.70;54.00
35381;DHT22;21486;51.916;8.378;2023-06-19T06:17:31;28.80;53.50
35381;DHT22;21486;51.916;8.378;2023-06-19T06:19:56;28.90;54.40
35381;DHT22;21486;51.916;8.378;2023-06-19T06:22:22;28.70;54.20
35381;DHT22;21486;51.916;8.378;2023-06-19T06:24:47;28.50;54.70
35381;DHT22;21486;51.916;8.378;2023-06-19T06:27:13;28.50;54.90
35381;DHT22;21486;51.916;8.378;2023-06-19T06:29:39;28.60;55.30
35381;DHT22;21486;51.916;8.378;2023-06-19T06:32:06;28.80;54.50
35381;DHT22;21486;51.916;8.378;2023-06-19T06:34:32;29.20;53.80
35381;DHT22;21486;51.916;8.378;2023-06-19T06:36:58;29.40;53.90
35381;DHT22;21486;51.916;8.378;2023-06-19T06:39:24;29.80;52.80
35381;DHT22;21486;51.916;8.378;2023-06-19T06:41:50;30.10;52.90
35381;DHT22;21486;51.916;8.378;2023-06-19T06:44:15;30.40;51.50
35381;DHT22;21486;51.916;8.378;2023-06-19T06:46:41;30.30;51.70
35381;DHT22;21486;51.916;8.378;2023-06-19T06:49:06;30.80;51.10
35381;DHT22;21486;51.916;8.378;2023-06-19T06:51:32;31.50;50.20
35381;DHT22;21486;51.916;8.378;2023-06-19T06:53:57;32.00;48.70
35381;DHT22;21486;51.916;8.378;2023-06-19T06:56:23;31.40;49.20
35381;DHT22;21486;51.916;8.378;2023-06-19T06:58:48;30.90;50.30
35381;DHT22;21486;51.916;8.378;2023-06-19T07:01:14;30.80;51.00
35381;DHT22;21486;51.916;8.378;2023-06-19T07:03:39;29.50;52.60
35381;DHT22;21486;51.916;8.378;2023-06-19T07:06:05;29.60;52.90
35381;DHT22;21486;51.916;8.378;2023-06-19T07:08:30;29.30;53.40
35381;DHT22;21486;51.916;8.378;2023-06-19T07:10:56;29.10;53.80
35381;DHT22;21486;51.916;8.378;2023-06-19T07:13:21;28.70;54.40
35381;DHT22;21486;51.916;8.378;2023-06-19T07:15:46;29.20;54.20
35381;DHT22;21486;51.916;8.378;2023-06-19T07:18:12;29.30;53.40
35381;DHT22;21486;51.916;8.378;2023-06-19T07:20:37;30.10;51.90
35381;DHT22;21486;51.916;8.378;2023-06-19T07:23:03;30.70;51.80
35381;DHT22;21486;51.916;8.378;2023-06-19T07:25:28;31.10;48.70
35381;DHT22;21486;51.916;8.378;2023-06-19T07:27:54;30.60;49.60
35381;DHT22;21486;51.916;8.378;2023-06-19T07:30:19;30.50;49.70
35381;DHT22;21486;51.916;8.378;2023-06-19T07:32:45;30.60;50.30
35381;DHT22;21486;51.916;8.378;2023-06-19T07:35:10;30.00;52.00
35381;DHT22;21486;51.916;8.378;2023-06-19T07:37:36;29.80;51.60
35381;DHT22;21486;51.916;8.378;2023-06-19T07:40:02;29.30;52.80
35381;DHT22;21486;51.916;8.378;2023-06-19T07:42:28;28.70;53.30
35381;DHT22;21486;51.916;8.378;2023-06-19T07:44:53;28.60;53.60
35381;DHT22;21486;51.916;8.378;2023-06-19T07:47:19;28.00;54.60
35381;DHT22;21486;51.916;8.378;2023-06-19T07:49:45;27.70;55.80
35381;DHT22;21486;51.916;8.378;2023-06-19T07:52:11;27.80;56.10
35381;DHT22;21486;51.916;8.378;2023-06-19T07:54:47;28.10;55.70
35381;DHT22;21486;51.916;8.378;2023-06-19T07:57:12;28.40;55.50
35381;DHT22;21486;51.916;8.378;2023-06-19T07:59:38;30.00;53.30
35381;DHT22;21486;51.916;8.378;2023-06-19T08:02:03;30.80;51.10
35381;DHT22;21486;51.916;8.378;2023-06-19T08:04:29;31.20;50.00
35381;DHT22;21486;51.916;8.378;2023-06-19T08:06:54;30.90;49.60
35381;DHT22;21486;51.916;8.378;2023-06-19T08:09:20;30.00;50.80
35381;DHT22;21486;51.916;8.378;2023-06-19T08:11:46;29.40;52.70
35381;DHT22;21486;51.916;8.378;2023-06-19T08:14:12;29.00;53.50
35381;DHT22;21486;51.916;8.378;2023-06-19T08:16:37;28.60;54.50
35381;DHT22;21486;51.916;8.378;2023-06-19T08:19:02;28.30;55.40
35381;DHT22;21486;51.916;8.378;2023-06-19T08:21:28;27.80;56.00
35381;DHT22;21486;51.916;8.378;2023-06-19T08:23:53;27.80;55.70
35381;DHT22;21486;51.916;8.378;2023-06-19T08:26:19;28.40;55.50
35381;DHT22;21486;51.916;8.378;2023-06-19T08:28:45;29.20;53.90
35381;DHT22;21486;51.916;8.378;2023-06-19T08:31:10;29.80;53.10
35381;DHT22;21486;51.916;8.378;2023-06-19T08:33:36;29.60;52.10
35381;DHT22;21486;51.916;8.378;2023-06-19T08:36:01;29.00;52.80
35381;DHT22;21486;51.916;8.378;2023-06-19T08:38:27;27.90;53.80
35381;DHT22;21486;51.916;8.378;2023-06-19T08:40:53;27.50;55.50
35381;DHT22;21486;51.916;8.378;2023-06-19T08:43:18;27.60;55.50
35381;DHT22;21486;51.916;8.378;2023-06-19T08:45:53;27.80;55.50
35381;DHT22;21486;51.916;8.378;2023-06-19T08:48:20;28.00;55.10
35381;DHT22;21486;51.916;8.378;2023-06-19T08:50:46;27.80;55.50
35381;DHT22;21486;51.916;8.378;2023-06-19T08:53:11;27.30;56.00
35381;DHT22;21486;51.916;8.378;2023-06-19T08:55:37;26.80;57.10
35381;DHT22;21486;51.916;8.378;2023-06-19T08:58:02;26.10;58.90
35381;DHT22;21486;51.916;8.378;2023-06-19T09:00:28;26.10;59.70
35381;DHT22;21486;51.916;8.378;2023-06-19T09:03:01;26.20;59.50
35381;DHT22;21486;51.916;8.378;2023-06-19T09:05:27;25.90;59.80
35381;DHT22;21486;51.916;8.378;2023-06-19T09:07:59;25.80;60.20
35381;DHT22;21486;51.916;8.378;2023-06-19T09:10:28;25.60;61.00
35381;DHT22;21486;51.916;8.378;2023-06-19T09:12:57;25.40;61.70
35381;DHT22;21486;51.916;8.378;2023-06-19T09:15:22;25.20;63.00
35381;DHT22;21486;51.916;8.378;2023-06-19T09:17:59;25.20;63.40
35381;DHT22;21486;51.916;8.378;2023-06-19T09:20:27;25.40;63.10
35381;DHT22;21486;51.916;8.378;2023-06-19T09:22:56;26.00;61.00
35381;DHT22;21486;51.916;8.378;2023-06-19T09:25:22;26.30;60.00
35381;DHT22;21486;51.916;8.378;2023-06-19T09:27:49;26.30;59.90
35381;DHT22;21486;51.916;8.378;2023-06-19T09:30:15;26.30;61.00
35381;DHT22;21486;51.916;8.378;2023-06-19T09:32:40;26.20;60.10
35381;DHT22;21486;51.916;8.378;2023-06-19T09:35:05;26.20;60.30
35381;DHT22;21486;51.916;8.378;2023-06-19T09:37:31;26.10;60.80
35381;DHT22;21486;51.916;8.378;2023-06-19T09:39:57;25.80;61.40
35381;DHT22;21486;51.916;8.378;2023-06-19T09:42:33;25.70;61.60
35381;DHT22;21486;51.916;8.378;2023-06-19T09:47:31;25.40;62.20
35381;DHT22;21486;51.916;8.378;2023-06-19T09:49:57;25.40;62.80
35381;DHT22;21486;51.916;8.378;2023-06-19T09:52:23;25.40;62.40
35381;DHT22;21486;51.916;8.378;2023-06-19T09:54:52;25.40;61.90
35381;DHT22;21486;51.916;8.378;2023-06-19T09:57:17;25.40;61.30
35381;DHT22;21486;51.916;8.378;2023-06-19T09:59:45;25.30;61.60
35381;DHT22;21486;51.916;8.378;2023-06-19T10:02:11;25.30;62.20
35381;DHT22;21486;51.916;8.378;2023-06-19T10:04:43;25.40;62.30
35381;DHT22;21486;51.916;8.378;2023-06-19T10:07:17;25.20;62.30
35381;DHT22;21486;51.916;8.378;2023-06-19T10:10:03;25.20;63.20
35381;DHT22;21486;51.916;8.378;2023-06-19T10:12:39;25.20;63.30
35381;DHT22;21486;51.916;8.378;2023-06-19T10:15:08;25.50;63.10
35381;DHT22;21486;51.916;8.378;2023-06-19T10:17:34;25.90;62.00
35381;DHT22;21486;51.916;8.378;2023-06-19T10:19:59;26.30;62.00
35381;DHT22;21486;51.916;8.378;2023-06-19T10:22:29;26.60;59.60
35381;DHT22;21486;51.916;8.378;2023-06-19T10:24:55;26.80;60.20
35381;DHT22;21486;51.916;8.378;2023-06-19T10:27:21;27.10;59.10
35381;DHT22;21486;51.916;8.378;2023-06-19T10:29:51;27.30;58.40
35381;DHT22;21486;51.916;8.378;2023-06-19T10:32:17;27.50;57.90
35381;DHT22;21486;51.916;8.378;2023-06-19T10:34:45;27.60;57.50
35381;DHT22;21486;51.916;8.378;2023-06-19T10:37:11;27.30;57.80
35381;DHT22;21486;51.916;8.378;2023-06-19T10:39:37;26.80;59.30
35381;DHT22;21486;51.916;8.378;2023-06-19T10:42:06;26.90;60.00
35381;DHT22;21486;51.916;8.378;2023-06-19T10:44:32;27.40;60.40
35381;DHT22;21486;51.916;8.378;2023-06-19T10:46:58;28.10;56.90
35381;DHT22;21486;51.916;8.378;2023-06-19T10:49:23;28.30;55.30
35381;DHT22;21486;51.916;8.378;2023-06-19T10:51:49;28.30;55.80
35381;DHT22;21486;51.916;8.378;2023-06-19T10:54:15;28.50;55.10
35381;DHT22;21486;51.916;8.378;2023-06-19T10:56:40;28.30;55.30
35381;DHT22;21486;51.916;8.378;2023-06-19T10:59:09;28.20;55.80
35381;DHT22;21486;51.916;8.378;2023-06-19T11:01:39;28.00;57.30
35381;DHT22;21486;51.916;8.378;2023-06-19T11:04:05;27.60;57.30
35381;DHT22;21486;51.916;8.378;2023-06-19T11:06:31;27.70;57.50
35381;DHT22;21486;51.916;8.378;2023-06-19T11:08:57;27.40;57.40
35381;DHT22;21486;51.916;8.378;2023-06-19T11:11:22;27.30;58.10
35381;DHT22;21486;51.916;8.378;2023-06-19T11:13:48;27.10;58.80
35381;DHT22;21486;51.916;8.378;2023-06-19T11:16:14;26.90;59.20
35381;DHT22;21486;51.916;8.378;2023-06-19T11:18:39;26.40;59.80
35381;DHT22;21486;51.916;8.378;2023-06-19T11:21:05;26.40;60.70
35381;DHT22;21486;51.916;8.378;2023-06-19T11:23:30;26.40;60.00
35381;DHT22;21486;51.916;8.378;2023-06-19T11:26:05;26.30;61.60
35381;DHT22;21486;51.916;8.378;2023-06-19T11:28:30;26.20;60.70
35381;DHT22;21486;51.916;8.378;2023-06-19T11:31:00;26.20;60.90
35381;DHT22;21486;51.916;8.378;2023-06-19T11:33:26;26.30;60.70
35381;DHT22;21486;51.916;8.378;2023-06-19T11:35:52;26.60;60.10
35381;DHT22;21486;51.916;8.378;2023-06-19T11:38:18;26.70;60.50
35381;DHT22;21486;51.916;8.378;2023-06-19T11:40:44;26.80;60.90
35381;DHT22;21486;51.916;8.378;2023-06-19T11:43:11;26.70;60.20
35381;DHT22;21486;51.916;8.378;2023-06-19T11:45:49;26.70;60.50
35381;DHT22;21486;51.916;8.378;2023-06-19T11:48:21;26.90;60.30
35381;DHT22;21486;51.916;8.378;2023-06-19T11:50:46;27.10;59.40
35381;DHT22;21486;51.916;8.378;2023-06-19T11:53:12;27.20;59.70
35381;DHT22;21486;51.916;8.378;2023-06-19T11:55:38;27.50;59.30
35381;DHT22;21486;51.916;8.378;2023-06-19T11:58:04;27.70;58.10
35381;DHT22;21486;51.916;8.378;2023-06-19T12:00:29;28.10;57.30
35381;DHT22;21486;51.916;8.378;2023-06-19T12:02:54;28.30;57.30
35381;DHT22;21486;51.916;8.378;2023-06-19T12:05:22;28.60;56.20
35381;DHT22;21486;51.916;8.378;2023-06-19T12:07:47;28.30;56.00
35381;DHT22;21486;51.916;8.378;2023-06-19T12:10:13;27.60;57.60
35381;DHT22;21486;51.916;8.378;2023-06-19T12:12:38;27.60;59.60
35381;DHT22;21486;51.916;8.378;2023-06-19T12:15:04;27.70;57.50
35381;DHT22;21486;51.916;8.378;2023-06-19T12:17:30;27.70;58.50
35381;DHT22;21486;51.916;8.378;2023-06-19T12:19:56;28.20;58.80
35381;DHT22;21486;51.916;8.378;2023-06-19T12:22:22;28.50;57.00
35381;DHT22;21486;51.916;8.378;2023-06-19T12:24:48;28.70;54.70
35381;DHT22;21486;51.916;8.378;2023-06-19T12:27:13;29.00;53.90
35381;DHT22;21486;51.916;8.378;2023-06-19T12:29:39;29.10;54.20
35381;DHT22;21486;51.916;8.378;2023-06-19T12:32:04;29.10;53.50
35381;DHT22;21486;51.916;8.378;2023-06-19T12:34:30;29.00;53.80
35381;DHT22;21486;51.916;8.378;2023-06-19T12:36:55;29.40;53.10
35381;DHT22;21486;51.916;8.378;2023-06-19T12:39:22;29.90;52.30
35381;DHT22;21486;51.916;8.378;2023-06-19T12:41:48;30.00;52.00
35381;DHT22;21486;51.916;8.378;2023-06-19T12:44:13;29.20;52.70
35381;DHT22;21486;51.916;8.378;2023-06-19T12:46:39;29.30;54.50
35381;DHT22;21486;51.916;8.378;2023-06-19T12:49:05;29.20;53.60
35381;DHT22;21486;51.916;8.378;2023-06-19T12:51:30;29.20;52.70
35381;DHT22;21486;51.916;8.378;2023-06-19T12:53:56;29.20;52.70
35381;DHT22;21486;51.916;8.378;2023-06-19T12:56:21;29.20;54.30
35381;DHT22;21486;51.916;8.378;2023-06-19T12:58:47;29.60;52.30
35381;DHT22;21486;51.916;8.378;2023-06-19T13:01:12;29.70;52.60
35381;DHT22;21486;51.916;8.378;2023-06-19T13:03:38;29.50;51.40
35381;DHT22;21486;51.916;8.378;2023-06-19T13:06:03;29.10;52.00
35381;DHT22;21486;51.916;8.378;2023-06-19T13:08:29;28.90;51.30
35381;DHT22;21486;51.916;8.378;2023-06-19T13:10:54;28.80;52.80
35381;DHT22;21486;51.916;8.378;2023-06-19T13:13:20;28.90;53.00
35381;DHT22;21486;51.916;8.378;2023-06-19T13:15:45;28.70;52.80
35381;DHT22;21486;51.916;8.378;2023-06-19T13:18:11;29.10;53.10
35381;DHT22;21486;51.916;8.378;2023-06-19T13:20:36;29.10;52.10
35381;DHT22;21486;51.916;8.378;2023-06-19T13:23:02;29.20;51.80
35381;DHT22;21486;51.916;8.378;2023-06-19T13:25:27;28.60;52.30
35381;DHT22;21486;51.916;8.378;2023-06-19T13:27:53;28.00;52.80
35381;DHT22;21486;51.916;8.378;2023-06-19T13:30:19;28.00;54.20
35381;DHT22;21486;51.916;8.378;2023-06-19T13:32:44;28.10;52.90
35381;DHT22;21486;51.916;8.378;2023-06-19T13:35:09;28.00;52.20
35381;DHT22;21486;51.916;8.378;2023-06-19T13:37:36;27.90;53.80
35381;DHT22;21486;51.916;8.378;2023-06-19T13:40:02;27.70;53.50
35381;DHT22;21486;51.916;8.378;2023-06-19T13:42:31;27.70;53.60
35381;DHT22;21486;51.916;8.378;2023-06-19T13:44:57;27.80;54.00
35381;DHT22;21486;51.916;8.378;2023-06-19T13:47:22;27.90;54.70
35381;DHT22;21486;51.916;8.378;2023-06-19T13:49:50;28.00;54.00
35381;DHT22;21486;51.916;8.378;2023-06-19T13:52:16;28.20;54.20
35381;DHT22;21486;51.916;8.378;2023-06-19T13:54:41;28.40;53.10
35381;DHT22;21486;51.916;8.378;2023-06-19T13:57:07;28.40;53.10
35381;DHT22;21486;51.916;8.378;2023-06-19T13:59:32;28.60;52.10
35381;DHT22;21486;51.916;8.378;2023-06-19T14:01:58;28.80;52.00
35381;DHT22;21486;51.916;8.378;2023-06-19T14:04:24;28.90;52.30
35381;DHT22;21486;51.916;8.378;2023-06-19T14:06:49;29.10;51.60
35381;DHT22;21486;51.916;8.378;2023-06-19T14:09:15;28.80;51.10
35381;DHT22;21486;51.916;8.378;2023-06-19T14:11:40;28.60;51.90
35381;DHT22;21486;51.916;8.378;2023-06-19T14:14:06;28.70;52.70
35381;DHT22;21486;51.916;8.378;2023-06-19T14:16:32;28.80;52.20
35381;DHT22;21486;51.916;8.378;2023-06-19T14:18:57;28.80;52.00
35381;DHT22;21486;51.916;8.378;2023-06-19T14:21:22;28.60;52.00
35381;DHT22;21486;51.916;8.378;2023-06-19T14:23:49;28.70;52.30
35381;DHT22;21486;51.916;8.378;2023-06-19T14:26:14;28.80;51.60
35381;DHT22;21486;51.916;8.378;2023-06-19T14:28:40;28.90;50.80
35381;DHT22;21486;51.916;8.378;2023-06-19T14:31:05;28.70;51.00
35381;DHT22;21486;51.916;8.378;2023-06-19T14:33:31;28.80;53.20
35381;DHT22;21486;51.916;8.378;2023-06-19T14:36:01;28.90;51.70
35381;DHT22;21486;51.916;8.378;2023-06-19T14:38:28;28.90;51.10
35381;DHT22;21486;51.916;8.378;2023-06-19T14:41:00;29.00;51.60
35381;DHT22;21486;51.916;8.378;2023-06-19T14:43:26;29.10;52.50
35381;DHT22;21486;51.916;8.378;2023-06-19T14:45:51;28.80;51.20
35381;DHT22;21486;51.916;8.378;2023-06-19T14:48:17;28.90;52.20
35381;DHT22;21486;51.916;8.378;2023-06-19T14:50:43;29.00;51.10
35381;DHT22;21486;51.916;8.378;2023-06-19T14:53:08;29.00;51.10
35381;DHT22;21486;51.916;8.378;2023-06-19T14:55:34;28.80;51.30
35381;DHT22;21486;51.916;8.378;2023-06-19T14:57:59;29.00;52.00
35381;DHT22;21486;51.916;8.378;2023-06-19T15:00:25;28.90;51.80
35381;DHT22;21486;51.916;8.378;2023-06-19T15:02:50;29.00;51.00
35381;DHT22;21486;51.916;8.378;2023-06-19T15:05:16;29.10;50.00
35381;DHT22;21486;51.916;8.378;2023-06-19T15:07:41;29.20;51.50
35381;DHT22;21486;51.916;8.378;2023-06-19T15:10:07;29.10;51.60
35381;DHT22;21486;51.916;8.378;2023-06-19T15:12:32;29.00;52.00
35381;DHT22;21486;51.916;8.378;2023-06-19T15:15:00;28.90;51.10
35381;DHT22;21486;51.916;8.378;2023-06-19T15:17:25;29.00;52.30
35381;DHT22;21486;51.916;8.378;2023-06-19T15:19:51;29.20;51.20
35381;DHT22;21486;51.916;8.378;2023-06-19T15:22:16;29.10;50.00
35381;DHT22;21486;51.916;8.378;2023-06-19T15:24:42;29.10;50.00
35381;DHT22;21486;51.916;8.378;2023-06-19T15:27:07;29.00;50.20